Terminal Aerodrome Forecast
Issued by NWS Central Illinois

Home | Current Version | Previous Version | Text Only | Print | Product List | Glossary On
Versions: 1 2 3 4 5 6 7 8 9 10 11 12 13 14 15 16 17 18 19 20 21 22 23 24 25 26 27
000
FTUS43 KILX 231400 AAA
TAFPIA
TAF AMD
KPIA 231455Z 2315/2412 17011KT P6SM VCSH SCT015 BKN050
      WS020/22040KT
      TEMPO 2315/2317 5SM -SHRA BR BKN015
     FM231700 15013G20KT 5SM -SHRA BR OVC007
     FM240000 18010KT 2SM -SHRA BR OVC004
     FM240800 27012G20KT 4SM BR VCSH OVC007=

USA.gov is the U.S. government's official web portal to all federal, state and local government web resources and services.